sensor_id;sensor_type;location;lat;lon;timestamp;P1;durP1;ratioP1;P2;durP2;ratioP2
72904;SDS011;61048;52.162;4.516;2023-07-29T00:01:11;2.38;;;0.50;;
72904;SDS011;61048;52.162;4.516;2023-07-29T00:03:38;2.42;;;0.38;;
72904;SDS011;61048;52.162;4.516;2023-07-29T00:06:06;3.00;;;0.63;;
72904;SDS011;61048;52.162;4.516;2023-07-29T00:08:32;4.53;;;0.70;;
72904;SDS011;61048;52.162;4.516;2023-07-29T00:10:59;3.83;;;0.52;;
72904;SDS011;61048;52.162;4.516;2023-07-29T00:13:28;4.07;;;0.60;;
72904;SDS011;61048;52.162;4.516;2023-07-29T00:15:55;2.65;;;0.50;;
72904;SDS011;61048;52.162;4.516;2023-07-29T00:18:22;3.20;;;0.40;;
72904;SDS011;61048;52.162;4.516;2023-07-29T00:20:49;3.10;;;0.50;;
72904;SDS011;61048;52.162;4.516;2023-07-29T00:23:16;2.78;;;0.40;;
72904;SDS011;61048;52.162;4.516;2023-07-29T00:25:45;3.50;;;0.40;;
72904;SDS011;61048;52.162;4.516;2023-07-29T00:28:12;2.30;;;0.38;;
72904;SDS011;61048;52.162;4.516;2023-07-29T00:30:40;3.53;;;0.50;;
72904;SDS011;61048;52.162;4.516;2023-07-29T00:33:10;6.10;;;0.50;;
72904;SDS011;61048;52.162;4.516;2023-07-29T00:35:37;2.40;;;0.40;;
72904;SDS011;61048;52.162;4.516;2023-07-29T00:38:04;2.30;;;0.52;;
72904;SDS011;61048;52.162;4.516;2023-07-29T00:40:30;3.50;;;0.40;;
72904;SDS011;61048;52.162;4.516;2023-07-29T00:43:02;2.20;;;0.52;;
72904;SDS011;61048;52.162;4.516;2023-07-29T00:45:29;2.05;;;0.30;;
72904;SDS011;61048;52.162;4.516;2023-07-29T00:47:59;4.22;;;0.40;;
72904;SDS011;61048;52.162;4.516;2023-07-29T00:50:26;3.80;;;0.75;;
72904;SDS011;61048;52.162;4.516;2023-07-29T00:52:54;2.13;;;0.40;;
72904;SDS011;61048;52.162;4.516;2023-07-29T00:55:22;3.85;;;0.40;;
72904;SDS011;61048;52.162;4.516;2023-07-29T00:57:50;2.83;;;0.47;;
72904;SDS011;61048;52.162;4.516;2023-07-29T01:00:19;2.22;;;0.38;;
72904;SDS011;61048;52.162;4.516;2023-07-29T01:02:47;2.97;;;0.50;;
72904;SDS011;61048;52.162;4.516;2023-07-29T01:05:16;1.77;;;0.40;;
72904;SDS011;61048;52.162;4.516;2023-07-29T01:07:44;2.60;;;0.47;;
72904;SDS011;61048;52.162;4.516;2023-07-29T01:10:19;3.33;;;0.40;;
72904;SDS011;61048;52.162;4.516;2023-07-29T01:12:56;2.22;;;0.38;;
72904;SDS011;61048;52.162;4.516;2023-07-29T01:15:31;2.92;;;0.75;;
72904;SDS011;61048;52.162;4.516;2023-07-29T01:18:06;3.25;;;0.40;;
72904;SDS011;61048;52.162;4.516;2023-07-29T01:20:38;3.70;;;0.60;;
72904;SDS011;61048;52.162;4.516;2023-07-29T01:23:07;4.55;;;0.40;;
72904;SDS011;61048;52.162;4.516;2023-07-29T01:25:36;1.85;;;0.60;;
72904;SDS011;61048;52.162;4.516;2023-07-29T01:28:03;2.38;;;0.38;;
72904;SDS011;61048;52.162;4.516;2023-07-29T01:30:30;2.80;;;0.50;;
72904;SDS011;61048;52.162;4.516;2023-07-29T01:33:04;2.03;;;0.40;;
72904;SDS011;61048;52.162;4.516;2023-07-29T01:35:39;3.03;;;0.70;;
72904;SDS011;61048;52.162;4.516;2023-07-29T01:38:12;2.88;;;0.55;;
72904;SDS011;61048;52.162;4.516;2023-07-29T01:40:44;5.35;;;0.50;;
72904;SDS011;61048;52.162;4.516;2023-07-29T01:43:12;2.13;;;0.50;;
72904;SDS011;61048;52.162;4.516;2023-07-29T01:45:39;1.48;;;0.30;;
72904;SDS011;61048;52.162;4.516;2023-07-29T01:48:06;2.08;;;0.28;;
72904;SDS011;61048;52.162;4.516;2023-07-29T01:50:33;2.78;;;0.57;;
72904;SDS011;61048;52.162;4.516;2023-07-29T01:53:00;2.20;;;0.40;;
72904;SDS011;61048;52.162;4.516;2023-07-29T01:55:28;3.25;;;0.30;;
72904;SDS011;61048;52.162;4.516;2023-07-29T01:57:57;1.42;;;0.45;;
72904;SDS011;61048;52.162;4.516;2023-07-29T02:00:24;1.73;;;0.30;;
72904;SDS011;61048;52.162;4.516;2023-07-29T02:02:51;3.05;;;0.52;;
72904;SDS011;61048;52.162;4.516;2023-07-29T02:05:18;1.40;;;0.30;;
72904;SDS011;61048;52.162;4.516;2023-07-29T02:07:45;1.23;;;0.30;;
72904;SDS011;61048;52.162;4.516;2023-07-29T02:10:12;2.00;;;0.50;;
72904;SDS011;61048;52.162;4.516;2023-07-29T02:12:39;3.55;;;0.40;;
72904;SDS011;61048;52.162;4.516;2023-07-29T02:15:08;4.28;;;0.45;;
72904;SDS011;61048;52.162;4.516;2023-07-29T02:17:35;4.30;;;0.63;;
72904;SDS011;61048;52.162;4.516;2023-07-29T02:20:02;2.70;;;0.40;;
72904;SDS011;61048;52.162;4.516;2023-07-29T02:22:32;3.90;;;0.50;;
72904;SDS011;61048;52.162;4.516;2023-07-29T02:24:59;2.33;;;0.60;;
72904;SDS011;61048;52.162;4.516;2023-07-29T02:27:27;4.25;;;0.60;;
72904;SDS011;61048;52.162;4.516;2023-07-29T02:29:54;3.80;;;0.40;;
72904;SDS011;61048;52.162;4.516;2023-07-29T02:32:23;1.70;;;0.30;;
72904;SDS011;61048;52.162;4.516;2023-07-29T02:34:50;3.95;;;0.77;;
72904;SDS011;61048;52.162;4.516;2023-07-29T02:37:17;1.08;;;0.20;;
72904;SDS011;61048;52.162;4.516;2023-07-29T02:39:44;2.83;;;0.40;;
72904;SDS011;61048;52.162;4.516;2023-07-29T02:42:11;1.95;;;0.20;;
72904;SDS011;61048;52.162;4.516;2023-07-29T02:44:38;2.20;;;0.50;;
72904;SDS011;61048;52.162;4.516;2023-07-29T02:47:06;2.28;;;0.40;;
72904;SDS011;61048;52.162;4.516;2023-07-29T02:49:34;1.52;;;0.50;;
72904;SDS011;61048;52.162;4.516;2023-07-29T02:52:01;2.88;;;0.40;;
72904;SDS011;61048;52.162;4.516;2023-07-29T02:54:28;1.60;;;0.35;;
72904;SDS011;61048;52.162;4.516;2023-07-29T02:56:55;4.13;;;0.60;;
72904;SDS011;61048;52.162;4.516;2023-07-29T02:59:22;3.03;;;0.50;;
72904;SDS011;61048;52.162;4.516;2023-07-29T03:01:49;2.47;;;0.63;;
72904;SDS011;61048;52.162;4.516;2023-07-29T03:04:16;1.23;;;0.32;;
72904;SDS011;61048;52.162;4.516;2023-07-29T03:06:44;2.80;;;0.30;;
72904;SDS011;61048;52.162;4.516;2023-07-29T03:09:13;2.65;;;0.47;;
72904;SDS011;61048;52.162;4.516;2023-07-29T03:11:40;1.95;;;0.47;;
72904;SDS011;61048;52.162;4.516;2023-07-29T03:14:07;2.08;;;0.30;;
72904;SDS011;61048;52.162;4.516;2023-07-29T03:16:34;1.77;;;0.38;;
72904;SDS011;61048;52.162;4.516;2023-07-29T03:19:01;1.60;;;0.40;;
72904;SDS011;61048;52.162;4.516;2023-07-29T03:21:28;1.40;;;0.40;;
72904;SDS011;61048;52.162;4.516;2023-07-29T03:23:56;1.90;;;0.50;;
72904;SDS011;61048;52.162;4.516;2023-07-29T03:26:23;1.00;;;0.38;;
72904;SDS011;61048;52.162;4.516;2023-07-29T03:28:50;1.77;;;0.30;;
72904;SDS011;61048;52.162;4.516;2023-07-29T03:31:17;2.38;;;0.32;;
72904;SDS011;61048;52.162;4.516;2023-07-29T03:33:44;1.45;;;0.40;;
72904;SDS011;61048;52.162;4.516;2023-07-29T03:36:11;1.98;;;0.28;;
72904;SDS011;61048;52.162;4.516;2023-07-29T03:38:39;1.95;;;0.40;;
72904;SDS011;61048;52.162;4.516;2023-07-29T03:41:07;3.75;;;0.60;;
72904;SDS011;61048;52.162;4.516;2023-07-29T03:43:34;2.83;;;0.40;;
72904;SDS011;61048;52.162;4.516;2023-07-29T03:46:01;2.25;;;0.40;;
72904;SDS011;61048;52.162;4.516;2023-07-29T03:48:28;1.38;;;0.40;;
72904;SDS011;61048;52.162;4.516;2023-07-29T03:50:56;1.63;;;0.32;;
72904;SDS011;61048;52.162;4.516;2023-07-29T03:53:23;1.33;;;0.50;;
72904;SDS011;61048;52.162;4.516;2023-07-29T03:55:50;1.63;;;0.35;;
72904;SDS011;61048;52.162;4.516;2023-07-29T03:58:18;4.03;;;0.50;;
72904;SDS011;61048;52.162;4.516;2023-07-29T04:00:45;1.70;;;0.45;;
72904;SDS011;61048;52.162;4.516;2023-07-29T04:03:13;1.88;;;0.40;;
72904;SDS011;61048;52.162;4.516;2023-07-29T04:05:40;1.67;;;0.50;;
72904;SDS011;61048;52.162;4.516;2023-07-29T04:08:07;3.30;;;0.57;;
72904;SDS011;61048;52.162;4.516;2023-07-29T04:10:34;2.58;;;0.43;;
72904;SDS011;61048;52.162;4.516;2023-07-29T04:13:02;2.83;;;0.60;;
72904;SDS011;61048;52.162;4.516;2023-07-29T04:15:31;3.20;;;0.28;;
72904;SDS011;61048;52.162;4.516;2023-07-29T04:17:58;1.00;;;0.22;;
72904;SDS011;61048;52.162;4.516;2023-07-29T04:20:25;0.90;;;0.43;;
72904;SDS011;61048;52.162;4.516;2023-07-29T04:22:52;4.00;;;0.32;;
72904;SDS011;61048;52.162;4.516;2023-07-29T04:25:19;2.13;;;0.68;;
72904;SDS011;61048;52.162;4.516;2023-07-29T04:27:46;5.20;;;0.50;;
72904;SDS011;61048;52.162;4.516;2023-07-29T04:30:13;5.05;;;0.32;;
72904;SDS011;61048;52.162;4.516;2023-07-29T04:32:41;2.60;;;0.45;;
72904;SDS011;61048;52.162;4.516;2023-07-29T04:35:10;1.80;;;0.32;;
72904;SDS011;61048;52.162;4.516;2023-07-29T04:37:37;1.98;;;0.40;;
72904;SDS011;61048;52.162;4.516;2023-07-29T04:40:04;2.35;;;0.40;;
72904;SDS011;61048;52.162;4.516;2023-07-29T04:42:32;2.00;;;0.95;;
72904;SDS011;61048;52.162;4.516;2023-07-29T04:44:59;1.75;;;0.52;;
72904;SDS011;61048;52.162;4.516;2023-07-29T04:47:25;5.35;;;0.30;;
72904;SDS011;61048;52.162;4.516;2023-07-29T04:49:54;3.25;;;0.30;;
72904;SDS011;61048;52.162;4.516;2023-07-29T04:52:21;2.97;;;0.28;;
72904;SDS011;61048;52.162;4.516;2023-07-29T04:54:48;1.92;;;0.32;;
72904;SDS011;61048;52.162;4.516;2023-07-29T04:57:14;1.73;;;0.30;;
72904;SDS011;61048;52.162;4.516;2023-07-29T04:59:41;2.47;;;0.60;;
72904;SDS011;61048;52.162;4.516;2023-07-29T05:02:08;1.20;;;0.30;;
72904;SDS011;61048;52.162;4.516;2023-07-29T05:04:35;2.42;;;0.40;;
72904;SDS011;61048;52.162;4.516;2023-07-29T05:07:04;3.33;;;0.90;;
72904;SDS011;61048;52.162;4.516;2023-07-29T05:09:31;2.08;;;0.32;;
72904;SDS011;61048;52.162;4.516;2023-07-29T05:11:59;1.90;;;0.43;;
72904;SDS011;61048;52.162;4.516;2023-07-29T05:14:26;1.33;;;0.40;;
72904;SDS011;61048;52.162;4.516;2023-07-29T05:16:52;2.55;;;0.43;;
72904;SDS011;61048;52.162;4.516;2023-07-29T05:19:19;1.02;;;0.40;;
72904;SDS011;61048;52.162;4.516;2023-07-29T05:21:46;1.98;;;0.32;;
72904;SDS011;61048;52.162;4.516;2023-07-29T05:24:15;1.52;;;0.40;;
72904;SDS011;61048;52.162;4.516;2023-07-29T05:26:41;1.27;;;0.20;;
72904;SDS011;61048;52.162;4.516;2023-07-29T05:29:08;1.65;;;0.50;;
72904;SDS011;61048;52.162;4.516;2023-07-29T05:31:35;2.13;;;0.30;;
72904;SDS011;61048;52.162;4.516;2023-07-29T05:34:02;2.50;;;0.40;;
72904;SDS011;61048;52.162;4.516;2023-07-29T05:36:29;1.30;;;0.55;;
72904;SDS011;61048;52.162;4.516;2023-07-29T05:38:56;1.98;;;0.60;;
72904;SDS011;61048;52.162;4.516;2023-07-29T05:41:24;2.65;;;0.50;;
72904;SDS011;61048;52.162;4.516;2023-07-29T05:43:53;1.30;;;0.40;;
72904;SDS011;61048;52.162;4.516;2023-07-29T05:46:20;1.92;;;0.30;;
72904;SDS011;61048;52.162;4.516;2023-07-29T05:48:47;1.40;;;0.40;;
72904;SDS011;61048;52.162;4.516;2023-07-29T05:51:13;3.25;;;0.63;;
72904;SDS011;61048;52.162;4.516;2023-07-29T05:53:40;2.50;;;0.73;;
72904;SDS011;61048;52.162;4.516;2023-07-29T05:56:07;2.20;;;0.40;;
72904;SDS011;61048;52.162;4.516;2023-07-29T05:58:36;1.70;;;0.50;;
72904;SDS011;61048;52.162;4.516;2023-07-29T06:01:04;1.77;;;0.30;;
72904;SDS011;61048;52.162;4.516;2023-07-29T06:03:30;4.85;;;0.43;;
72904;SDS011;61048;52.162;4.516;2023-07-29T06:05:57;2.92;;;0.40;;
72904;SDS011;61048;52.162;4.516;2023-07-29T06:08:24;1.65;;;0.38;;
72904;SDS011;61048;52.162;4.516;2023-07-29T06:10:53;2.72;;;0.43;;
72904;SDS011;61048;52.162;4.516;2023-07-29T06:13:20;3.72;;;0.45;;
72904;SDS011;61048;52.162;4.516;2023-07-29T06:15:48;3.20;;;0.30;;
72904;SDS011;61048;52.162;4.516;2023-07-29T06:18:15;5.43;;;0.40;;
72904;SDS011;61048;52.162;4.516;2023-07-29T06:20:42;2.22;;;0.35;;
72904;SDS011;61048;52.162;4.516;2023-07-29T06:23:09;3.17;;;0.40;;
72904;SDS011;61048;52.162;4.516;2023-07-29T06:25:36;3.35;;;0.50;;
72904;SDS011;61048;52.162;4.516;2023-07-29T06:28:03;1.92;;;0.60;;
72904;SDS011;61048;52.162;4.516;2023-07-29T06:30:30;2.05;;;0.50;;
72904;SDS011;61048;52.162;4.516;2023-07-29T06:32:59;2.28;;;0.43;;
72904;SDS011;61048;52.162;4.516;2023-07-29T06:35:26;3.15;;;0.35;;
72904;SDS011;61048;52.162;4.516;2023-07-29T06:37:53;2.05;;;0.30;;
72904;SDS011;61048;52.162;4.516;2023-07-29T06:40:19;2.10;;;0.40;;
72904;SDS011;61048;52.162;4.516;2023-07-29T06:42:46;1.70;;;0.30;;
72904;SDS011;61048;52.162;4.516;2023-07-29T06:45:13;2.85;;;0.40;;
72904;SDS011;61048;52.162;4.516;2023-07-29T06:47:41;2.28;;;0.60;;
72904;SDS011;61048;52.162;4.516;2023-07-29T06:50:09;2.90;;;0.70;;
72904;SDS011;61048;52.162;4.516;2023-07-29T06:52:36;1.75;;;0.50;;
72904;SDS011;61048;52.162;4.516;2023-07-29T06:55:05;2.70;;;0.40;;
72904;SDS011;61048;52.162;4.516;2023-07-29T06:57:32;2.50;;;0.50;;
72904;SDS011;61048;52.162;4.516;2023-07-29T06:59:59;1.48;;;0.52;;
72904;SDS011;61048;52.162;4.516;2023-07-29T07:02:26;2.45;;;0.30;;
72904;SDS011;61048;52.162;4.516;2023-07-29T07:04:53;2.47;;;0.40;;
72904;SDS011;61048;52.162;4.516;2023-07-29T07:07:21;2.22;;;0.30;;
72904;SDS011;61048;52.162;4.516;2023-07-29T07:09:48;1.88;;;0.52;;
72904;SDS011;61048;52.162;4.516;2023-07-29T07:12:15;2.00;;;0.40;;
72904;SDS011;61048;52.162;4.516;2023-07-29T07:14:42;1.65;;;0.20;;
72904;SDS011;61048;52.162;4.516;2023-07-29T07:17:09;2.85;;;0.73;;
72904;SDS011;61048;52.162;4.516;2023-07-29T07:19:36;2.15;;;0.60;;
72904;SDS011;61048;52.162;4.516;2023-07-29T07:22:03;1.42;;;0.38;;
72904;SDS011;61048;52.162;4.516;2023-07-29T07:24:31;2.33;;;0.60;;
72904;SDS011;61048;52.162;4.516;2023-07-29T07:26:58;5.88;;;0.75;;
72904;SDS011;61048;52.162;4.516;2023-07-29T07:29:25;3.40;;;0.22;;
72904;SDS011;61048;52.162;4.516;2023-07-29T07:31:52;1.95;;;0.57;;
72904;SDS011;61048;52.162;4.516;2023-07-29T07:34:20;2.33;;;0.40;;
72904;SDS011;61048;52.162;4.516;2023-07-29T07:36:47;2.42;;;0.38;;
72904;SDS011;61048;52.162;4.516;2023-07-29T07:39:15;3.28;;;0.55;;
72904;SDS011;61048;52.162;4.516;2023-07-29T07:41:43;3.35;;;0.45;;
72904;SDS011;61048;52.162;4.516;2023-07-29T07:44:10;2.50;;;0.45;;
72904;SDS011;61048;52.162;4.516;2023-07-29T07:46:40;2.88;;;0.30;;
72904;SDS011;61048;52.162;4.516;2023-07-29T07:49:07;2.58;;;0.20;;
72904;SDS011;61048;52.162;4.516;2023-07-29T07:51:34;2.35;;;0.43;;
72904;SDS011;61048;52.162;4.516;2023-07-29T07:54:01;1.52;;;0.22;;
72904;SDS011;61048;52.162;4.516;2023-07-29T07:56:28;1.67;;;0.30;;
72904;SDS011;61048;52.162;4.516;2023-07-29T07:58:56;2.00;;;0.32;;
72904;SDS011;61048;52.162;4.516;2023-07-29T08:01:23;3.15;;;0.63;;
72904;SDS011;61048;52.162;4.516;2023-07-29T08:03:50;4.00;;;0.45;;
72904;SDS011;61048;52.162;4.516;2023-07-29T08:06:17;2.80;;;0.40;;
72904;SDS011;61048;52.162;4.516;2023-07-29T08:08:43;2.38;;;0.43;;
72904;SDS011;61048;52.162;4.516;2023-07-29T08:11:10;5.05;;;0.40;;
72904;SDS011;61048;52.162;4.516;2023-07-29T08:13:37;2.25;;;0.50;;
72904;SDS011;61048;52.162;4.516;2023-07-29T08:16:05;3.20;;;0.68;;
72904;SDS011;61048;52.162;4.516;2023-07-29T08:18:32;1.25;;;0.22;;
72904;SDS011;61048;52.162;4.516;2023-07-29T08:21:00;3.15;;;0.55;;
72904;SDS011;61048;52.162;4.516;2023-07-29T08:23:29;1.92;;;0.40;;
72904;SDS011;61048;52.162;4.516;2023-07-29T08:25:57;1.42;;;0.47;;
72904;SDS011;61048;52.162;4.516;2023-07-29T08:28:27;1.77;;;0.40;;
72904;SDS011;61048;52.162;4.516;2023-07-29T08:30:54;3.25;;;0.52;;
72904;SDS011;61048;52.162;4.516;2023-07-29T08:33:23;1.70;;;0.38;;
72904;SDS011;61048;52.162;4.516;2023-07-29T08:35:50;2.97;;;0.43;;
72904;SDS011;61048;52.162;4.516;2023-07-29T08:38:17;1.65;;;0.30;;
72904;SDS011;61048;52.162;4.516;2023-07-29T08:40:45;1.40;;;0.35;;
72904;SDS011;61048;52.162;4.516;2023-07-29T08:43:16;2.00;;;0.30;;
72904;SDS011;61048;52.162;4.516;2023-07-29T08:45:45;2.83;;;0.45;;
72904;SDS011;61048;52.162;4.516;2023-07-29T08:48:12;3.25;;;0.40;;
72904;SDS011;61048;52.162;4.516;2023-07-29T08:50:45;2.72;;;0.40;;
72904;SDS011;61048;52.162;4.516;2023-07-29T08:53:13;2.78;;;0.90;;
72904;SDS011;61048;52.162;4.516;2023-07-29T08:55:40;1.73;;;0.35;;
72904;SDS011;61048;52.162;4.516;2023-07-29T08:58:07;2.92;;;0.38;;
72904;SDS011;61048;52.162;4.516;2023-07-29T09:00:34;2.50;;;0.57;;
72904;SDS011;61048;52.162;4.516;2023-07-29T09:03:02;1.63;;;0.30;;
72904;SDS011;61048;52.162;4.516;2023-07-29T09:05:32;2.88;;;0.50;;
72904;SDS011;61048;52.162;4.516;2023-07-29T09:08:01;1.80;;;0.50;;
72904;SDS011;61048;52.162;4.516;2023-07-29T09:10:28;4.60;;;0.90;;
72904;SDS011;61048;52.162;4.516;2023-07-29T09:12:55;3.22;;;0.50;;
72904;SDS011;61048;52.162;4.516;2023-07-29T09:15:26;1.77;;;0.43;;
72904;SDS011;61048;52.162;4.516;2023-07-29T09:17:55;2.88;;;0.50;;
72904;SDS011;61048;52.162;4.516;2023-07-29T09:20:25;1.88;;;0.40;;
72904;SDS011;61048;52.162;4.516;2023-07-29T09:22:53;2.72;;;1.10;;
72904;SDS011;61048;52.162;4.516;2023-07-29T09:25:25;3.22;;;0.57;;
72904;SDS011;61048;52.162;4.516;2023-07-29T09:30:24;2.28;;;0.40;;
72904;SDS011;61048;52.162;4.516;2023-07-29T09:32:52;2.88;;;0.45;;
72904;SDS011;61048;52.162;4.516;2023-07-29T09:35:21;2.58;;;0.52;;
72904;SDS011;61048;52.162;4.516;2023-07-29T09:37:48;1.95;;;0.43;;
72904;SDS011;61048;52.162;4.516;2023-07-29T09:40:16;2.30;;;0.70;;
72904;SDS011;61048;52.162;4.516;2023-07-29T09:42:48;3.85;;;0.60;;
72904;SDS011;61048;52.162;4.516;2023-07-29T09:45:20;4.03;;;0.60;;
72904;SDS011;61048;52.162;4.516;2023-07-29T09:47:47;2.97;;;0.43;;
72904;SDS011;61048;52.162;4.516;2023-07-29T09:50:15;1.85;;;0.40;;
72904;SDS011;61048;52.162;4.516;2023-07-29T09:52:42;2.70;;;0.50;;
72904;SDS011;61048;52.162;4.516;2023-07-29T09:55:11;3.25;;;0.60;;
72904;SDS011;61048;52.162;4.516;2023-07-29T09:57:39;2.90;;;0.50;;
72904;SDS011;61048;52.162;4.516;2023-07-29T10:00:10;4.20;;;0.60;;
72904;SDS011;61048;52.162;4.516;2023-07-29T10:02:38;2.65;;;0.80;;
72904;SDS011;61048;52.162;4.516;2023-07-29T10:05:07;2.63;;;0.50;;
72904;SDS011;61048;52.162;4.516;2023-07-29T10:07:35;2.45;;;0.40;;
72904;SDS011;61048;52.162;4.516;2023-07-29T10:10:03;4.18;;;0.50;;
72904;SDS011;61048;52.162;4.516;2023-07-29T10:12:31;1.95;;;0.60;;
72904;SDS011;61048;52.162;4.516;2023-07-29T10:14:59;2.72;;;0.65;;
72904;SDS011;61048;52.162;4.516;2023-07-29T10:17:29;1.98;;;0.40;;
72904;SDS011;61048;52.162;4.516;2023-07-29T10:19:57;1.65;;;0.43;;
72904;SDS011;61048;52.162;4.516;2023-07-29T10:22:24;2.88;;;0.57;;
72904;SDS011;61048;52.162;4.516;2023-07-29T10:25:01;1.55;;;0.40;;
72904;SDS011;61048;52.162;4.516;2023-07-29T10:35:54;3.55;;;0.90;;
72904;SDS011;61048;52.162;4.516;2023-07-29T10:38:22;2.90;;;0.70;;
72904;SDS011;61048;52.162;4.516;2023-07-29T10:40:50;2.67;;;0.60;;
72904;SDS011;61048;52.162;4.516;2023-07-29T10:43:24;4.05;;;0.75;;
72904;SDS011;61048;52.162;4.516;2023-07-29T10:45:52;6.43;;;0.70;;
72904;SDS011;61048;52.162;4.516;2023-07-29T10:51:25;3.53;;;0.70;;
72904;SDS011;61048;52.162;4.516;2023-07-29T10:53:54;5.93;;;0.98;;
72904;SDS011;61048;52.162;4.516;2023-07-29T10:56:31;4.10;;;0.80;;
72904;SDS011;61048;52.162;4.516;2023-07-29T10:59:02;4.45;;;0.77;;
72904;SDS011;61048;52.162;4.516;2023-07-29T11:01:50;3.25;;;0.40;;
72904;SDS011;61048;52.162;4.516;2023-07-29T11:04:22;2.70;;;0.73;;
72904;SDS011;61048;52.162;4.516;2023-07-29T11:09:56;4.10;;;0.30;;
72904;SDS011;61048;52.162;4.516;2023-07-29T11:12:38;5.35;;;0.60;;
72904;SDS011;61048;52.162;4.516;2023-07-29T11:15:14;11.82;;;3.25;;
72904;SDS011;61048;52.162;4.516;2023-07-29T11:17:46;21.45;;;5.72;;
72904;SDS011;61048;52.162;4.516;2023-07-29T11:20:14;25.52;;;5.93;;
72904;SDS011;61048;52.162;4.516;2023-07-29T11:22:43;27.35;;;6.32;;
72904;SDS011;61048;52.162;4.516;2023-07-29T11:25:11;22.40;;;4.95;;
72904;SDS011;61048;52.162;4.516;2023-07-29T11:27:39;26.83;;;6.63;;
72904;SDS011;61048;52.162;4.516;2023-07-29T11:30:07;27.70;;;6.40;;
72904;SDS011;61048;52.162;4.516;2023-07-29T11:32:36;21.13;;;5.65;;
72904;SDS011;61048;52.162;4.516;2023-07-29T11:35:04;21.58;;;6.03;;
72904;SDS011;61048;52.162;4.516;2023-07-29T11:37:32;17.30;;;5.10;;
72904;SDS011;61048;52.162;4.516;2023-07-29T11:40:01;17.35;;;5.25;;
72904;SDS011;61048;52.162;4.516;2023-07-29T11:42:31;25.48;;;5.47;;
72904;SDS011;61048;52.162;4.516;2023-07-29T11:44:58;19.70;;;4.60;;
72904;SDS011;61048;52.162;4.516;2023-07-29T11:47:25;12.65;;;2.90;;
72904;SDS011;61048;52.162;4.516;2023-07-29T11:49:52;11.20;;;3.13;;
72904;SDS011;61048;52.162;4.516;2023-07-29T11:52:19;15.02;;;3.60;;
72904;SDS011;61048;52.162;4.516;2023-07-29T11:54:47;13.45;;;3.45;;
72904;SDS011;61048;52.162;4.516;2023-07-29T11:57:16;13.20;;;3.78;;
72904;SDS011;61048;52.162;4.516;2023-07-29T11:59:44;7.97;;;2.55;;
72904;SDS011;61048;52.162;4.516;2023-07-29T12:02:12;19.45;;;3.92;;
72904;SDS011;61048;52.162;4.516;2023-07-29T12:04:41;12.07;;;3.35;;
72904;SDS011;61048;52.162;4.516;2023-07-29T12:07:09;10.13;;;2.85;;
72904;SDS011;61048;52.162;4.516;2023-07-29T12:09:36;10.52;;;1.92;;
72904;SDS011;61048;52.162;4.516;2023-07-29T12:12:04;3.42;;;0.85;;
72904;SDS011;61048;52.162;4.516;2023-07-29T12:14:33;9.50;;;1.15;;
72904;SDS011;61048;52.162;4.516;2023-07-29T12:17:01;6.85;;;0.90;;
72904;SDS011;61048;52.162;4.516;2023-07-29T12:19:32;4.70;;;0.90;;
72904;SDS011;61048;52.162;4.516;2023-07-29T12:22:00;4.05;;;0.73;;
72904;SDS011;61048;52.162;4.516;2023-07-29T12:24:29;2.65;;;0.82;;
72904;SDS011;61048;52.162;4.516;2023-07-29T12:26:56;3.67;;;0.75;;
72904;SDS011;61048;52.162;4.516;2023-07-29T12:29:23;3.80;;;0.65;;
72904;SDS011;61048;52.162;4.516;2023-07-29T12:31:57;2.17;;;0.50;;
72904;SDS011;61048;52.162;4.516;2023-07-29T12:34:25;2.42;;;0.40;;
72904;SDS011;61048;52.162;4.516;2023-07-29T12:36:53;2.72;;;0.45;;
72904;SDS011;61048;52.162;4.516;2023-07-29T12:39:22;3.28;;;0.70;;
72904;SDS011;61048;52.162;4.516;2023-07-29T12:41:51;2.58;;;0.50;;
72904;SDS011;61048;52.162;4.516;2023-07-29T12:44:23;1.83;;;0.40;;
72904;SDS011;61048;52.162;4.516;2023-07-29T12:46:51;2.10;;;0.70;;
72904;SDS011;61048;52.162;4.516;2023-07-29T12:49:19;1.42;;;0.50;;
72904;SDS011;61048;52.162;4.516;2023-07-29T12:51:47;1.33;;;0.40;;
72904;SDS011;61048;52.162;4.516;2023-07-29T12:54:14;2.53;;;0.38;;
72904;SDS011;61048;52.162;4.516;2023-07-29T12:56:41;4.32;;;0.40;;
72904;SDS011;61048;52.162;4.516;2023-07-29T12:59:08;2.30;;;0.73;;
72904;SDS011;61048;52.162;4.516;2023-07-29T13:01:35;5.25;;;0.45;;
72904;SDS011;61048;52.162;4.516;2023-07-29T13:04:02;2.05;;;0.45;;
72904;SDS011;61048;52.162;4.516;2023-07-29T13:06:30;2.72;;;0.43;;
72904;SDS011;61048;52.162;4.516;2023-07-29T13:08:57;2.88;;;0.43;;
72904;SDS011;61048;52.162;4.516;2023-07-29T13:11:24;4.13;;;0.70;;
72904;SDS011;61048;52.162;4.516;2023-07-29T13:13:51;5.55;;;0.38;;
72904;SDS011;61048;52.162;4.516;2023-07-29T13:16:18;3.75;;;0.40;;
72904;SDS011;61048;52.162;4.516;2023-07-29T13:18:45;2.97;;;0.30;;
72904;SDS011;61048;52.162;4.516;2023-07-29T13:21:11;2.58;;;0.30;;
72904;SDS011;61048;52.162;4.516;2023-07-29T13:23:40;3.20;;;0.60;;
72904;SDS011;61048;52.162;4.516;2023-07-29T13:26:07;6.45;;;0.70;;
72904;SDS011;61048;52.162;4.516;2023-07-29T13:28:34;4.45;;;0.82;;
72904;SDS011;61048;52.162;4.516;2023-07-29T13:31:00;3.45;;;0.40;;
72904;SDS011;61048;52.162;4.516;2023-07-29T13:33:28;3.70;;;0.50;;
72904;SDS011;61048;52.162;4.516;2023-07-29T13:35:58;3.78;;;0.70;;
72904;SDS011;61048;52.162;4.516;2023-07-29T13:38:25;2.38;;;0.50;;
72904;SDS011;61048;52.162;4.516;2023-07-29T13:40:54;2.13;;;0.45;;
72904;SDS011;61048;52.162;4.516;2023-07-29T13:43:21;3.80;;;0.52;;
72904;SDS011;61048;52.162;4.516;2023-07-29T13:45:48;2.75;;;0.50;;
72904;SDS011;61048;52.162;4.516;2023-07-29T13:48:15;2.63;;;0.32;;
72904;SDS011;61048;52.162;4.516;2023-07-29T13:50:42;4.90;;;0.55;;
72904;SDS011;61048;52.162;4.516;2023-07-29T13:53:09;1.90;;;0.30;;
72904;SDS011;61048;52.162;4.516;2023-07-29T13:55:36;2.75;;;0.40;;
72904;SDS011;61048;52.162;4.516;2023-07-29T13:58:04;1.95;;;0.40;;
72904;SDS011;61048;52.162;4.516;2023-07-29T14:00:31;1.95;;;0.40;;
72904;SDS011;61048;52.162;4.516;2023-07-29T14:02:58;2.60;;;0.73;;
72904;SDS011;61048;52.162;4.516;2023-07-29T14:05:25;2.20;;;0.30;;
72904;SDS011;61048;52.162;4.516;2023-07-29T14:07:52;1.40;;;0.35;;
72904;SDS011;61048;52.162;4.516;2023-07-29T14:10:20;2.30;;;0.55;;
72904;SDS011;61048;52.162;4.516;2023-07-29T14:12:47;2.08;;;0.52;;
72904;SDS011;61048;52.162;4.516;2023-07-29T14:15:15;1.83;;;0.43;;
72904;SDS011;61048;52.162;4.516;2023-07-29T14:17:43;2.30;;;0.70;;
72904;SDS011;61048;52.162;4.516;2023-07-29T14:20:10;3.35;;;0.60;;
72904;SDS011;61048;52.162;4.516;2023-07-29T14:22:37;2.03;;;0.40;;
72904;SDS011;61048;52.162;4.516;2023-07-29T14:25:05;1.98;;;0.50;;
72904;SDS011;61048;52.162;4.516;2023-07-29T14:27:32;3.47;;;0.70;;
72904;SDS011;61048;52.162;4.516;2023-07-29T14:29:59;3.55;;;0.50;;
72904;SDS011;61048;52.162;4.516;2023-07-29T14:32:28;1.40;;;0.55;;
72904;SDS011;61048;52.162;4.516;2023-07-29T14:34:55;1.13;;;0.43;;
72904;SDS011;61048;52.162;4.516;2023-07-29T14:37:22;1.90;;;0.60;;
72904;SDS011;61048;52.162;4.516;2023-07-29T14:39:49;2.35;;;0.65;;
72904;SDS011;61048;52.162;4.516;2023-07-29T14:42:16;2.38;;;0.50;;
72904;SDS011;61048;52.162;4.516;2023-07-29T14:44:43;3.17;;;0.77;;
72904;SDS011;61048;52.162;4.516;2023-07-29T14:47:10;2.40;;;0.50;;
72904;SDS011;61048;52.162;4.516;2023-07-29T14:49:38;2.92;;;0.40;;
72904;SDS011;61048;52.162;4.516;2023-07-29T14:52:05;1.70;;;0.40;;
72904;SDS011;61048;52.162;4.516;2023-07-29T14:54:33;2.38;;;0.40;;
72904;SDS011;61048;52.162;4.516;2023-07-29T14:57:00;1.38;;;0.50;;
72904;SDS011;61048;52.162;4.516;2023-07-29T14:59:27;1.95;;;0.30;;
72904;SDS011;61048;52.162;4.516;2023-07-29T15:01:54;3.10;;;0.50;;
72904;SDS011;61048;52.162;4.516;2023-07-29T15:04:20;3.70;;;0.60;;
72904;SDS011;61048;52.162;4.516;2023-07-29T15:06:49;2.40;;;0.38;;
72904;SDS011;61048;52.162;4.516;2023-07-29T15:09:16;2.33;;;0.50;;